createdAt,value
2023-12-09T00:02:14.611Z,2.47
2023-12-09T00:05:18.123Z,2.34
2023-12-09T00:08:20.641Z,2.42
2023-12-09T00:11:22.854Z,2.41
2023-12-09T00:14:26.879Z,2.44
2023-12-09T00:17:29.037Z,2.40
2023-12-09T00:20:32.305Z,2.40
2023-12-09T00:23:34.283Z,2.27
2023-12-09T00:26:36.602Z,2.22
2023-12-09T00:29:38.679Z,2.28
2023-12-09T00:32:40.774Z,2.21
2023-12-09T00:35:44.185Z,2.24
2023-12-09T00:38:48.408Z,2.17
2023-12-09T00:41:50.990Z,2.25
2023-12-09T00:44:53.296Z,2.21
2023-12-09T00:47:55.976Z,2.18
2023-12-09T00:51:01.987Z,2.17
2023-12-09T00:54:04.303Z,2.19
2023-12-09T00:57:06.665Z,2.11
2023-12-09T01:00:10.206Z,2.15
2023-12-09T01:03:12.529Z,2.12
2023-12-09T01:06:17.402Z,2.10
2023-12-09T01:09:19.901Z,2.13
2023-12-09T01:12:22.638Z,2.19
2023-12-09T01:15:24.980Z,2.11
2023-12-09T01:18:27.314Z,2.09
2023-12-09T01:21:31.516Z,2.06
2023-12-09T01:24:37.221Z,2.00
2023-12-09T01:27:39.625Z,2.02
2023-12-09T01:30:41.724Z,2.08
2023-12-09T01:33:43.921Z,2.00
2023-12-09T01:36:48.461Z,2.07
2023-12-09T01:39:50.714Z,1.98
2023-12-09T01:42:52.996Z,2.04
2023-12-09T01:46:01.269Z,2.04
2023-12-09T01:49:05.296Z,2.03
2023-12-09T01:52:12.387Z,2.04
2023-12-09T01:55:15.510Z,2.10
2023-12-09T01:58:19.830Z,2.07
2023-12-09T02:01:22.258Z,2.05
2023-12-09T02:04:25.600Z,2.02
2023-12-09T02:07:29.713Z,2.16
2023-12-09T02:10:31.950Z,2.15
2023-12-09T02:13:41.153Z,2.11
2023-12-09T02:16:49.678Z,2.19
2023-12-09T02:19:52.537Z,2.33
2023-12-09T02:23:08.263Z,2.43
2023-12-09T02:26:18.186Z,2.42
2023-12-09T02:29:23.123Z,2.41
2023-12-09T02:32:29.993Z,2.28
2023-12-09T02:35:36.902Z,2.27
2023-12-09T02:38:42.938Z,2.39
2023-12-09T02:41:47.511Z,2.33
2023-12-09T02:44:50.617Z,2.41
2023-12-09T02:47:52.988Z,2.39
2023-12-09T02:50:55.726Z,2.41
2023-12-09T02:53:59.330Z,2.42
2023-12-09T02:57:01.910Z,2.39
2023-12-09T03:00:07.869Z,2.29
2023-12-09T03:03:10.295Z,2.44
2023-12-09T03:06:13.055Z,2.43
2023-12-09T03:09:17.035Z,2.51
2023-12-09T03:12:21.821Z,2.46
2023-12-09T03:15:24.368Z,2.52
2023-12-09T03:18:26.754Z,2.55
2023-12-09T03:21:33.550Z,2.57
2023-12-09T03:24:37.628Z,2.59
2023-12-09T03:27:40.782Z,2.59
2023-12-09T03:30:43.160Z,2.56
2023-12-09T03:33:45.741Z,2.51
2023-12-09T03:36:48.465Z,2.53
2023-12-09T03:39:52.321Z,2.52
2023-12-09T03:42:54.671Z,2.52
2023-12-09T03:46:00.459Z,2.46
2023-12-09T03:49:02.826Z,2.48
2023-12-09T03:52:05.622Z,2.41
2023-12-09T03:55:10.680Z,2.49
2023-12-09T03:58:13.280Z,2.40
2023-12-09T04:01:17.397Z,2.42
2023-12-09T04:04:20.058Z,2.40
2023-12-09T04:07:22.199Z,2.45
2023-12-09T04:10:25.744Z,2.47
2023-12-09T04:13:28.494Z,2.36
2023-12-09T04:16:30.994Z,2.29
2023-12-09T04:19:34.210Z,2.41
2023-12-09T04:22:38.755Z,2.37
2023-12-09T04:25:42.773Z,2.38
2023-12-09T04:28:45.161Z,2.35
2023-12-09T04:31:47.876Z,2.30
2023-12-09T04:34:53.306Z,2.36
2023-12-09T04:37:55.620Z,2.31
2023-12-09T04:40:59.296Z,2.38
2023-12-09T04:44:01.591Z,2.36
2023-12-09T04:47:07.703Z,2.29
2023-12-09T04:50:12.453Z,2.25
2023-12-09T04:53:15.089Z,2.33
2023-12-09T04:56:19.007Z,2.24
2023-12-09T04:59:21.546Z,2.38
2023-12-09T05:02:32.971Z,2.30
2023-12-09T05:05:35.571Z,2.32
2023-12-09T05:08:40.357Z,2.28
2023-12-09T05:11:46.321Z,2.37
2023-12-09T05:14:49.008Z,2.40
2023-12-09T05:17:51.444Z,2.30
2023-12-09T05:20:55.148Z,2.39
2023-12-09T05:23:57.655Z,2.38
2023-12-09T05:27:02.326Z,2.37
2023-12-09T05:30:05.595Z,2.45
2023-12-09T05:33:08.528Z,2.43
2023-12-09T05:36:11.436Z,2.42
2023-12-09T05:39:13.649Z,2.47
2023-12-09T05:42:17.386Z,2.51
2023-12-09T05:45:19.650Z,2.51
2023-12-09T05:48:22.020Z,2.42
2023-12-09T05:51:24.838Z,2.33
2023-12-09T05:54:32.744Z,2.30
2023-12-09T05:57:36.722Z,2.32
2023-12-09T06:00:39.066Z,2.21
2023-12-09T06:03:44.096Z,2.23
2023-12-09T06:06:46.700Z,2.13
2023-12-09T06:09:49.419Z,2.03
2023-12-09T06:12:53.021Z,2.08
2023-12-09T06:15:56.443Z,2.07
2023-12-09T06:18:58.910Z,1.88
2023-12-09T06:22:01.103Z,1.91
2023-12-09T06:25:03.287Z,1.89
2023-12-09T06:28:11.459Z,1.70
2023-12-09T06:31:13.827Z,1.76
2023-12-09T06:34:18.243Z,1.67
2023-12-09T06:37:21.138Z,1.74
2023-12-09T06:40:26.423Z,1.77
2023-12-09T06:43:30.053Z,1.74
2023-12-09T06:46:32.662Z,1.79
2023-12-09T06:49:34.935Z,1.81
2023-12-09T06:52:37.259Z,1.84
2023-12-09T06:55:42.343Z,1.81
2023-12-09T06:58:46.510Z,1.87
2023-12-09T07:01:51.525Z,1.79
2023-12-09T07:04:54.179Z,1.73
2023-12-09T07:07:56.770Z,1.86
2023-12-09T07:11:10.043Z,1.86
2023-12-09T07:14:16.626Z,1.83
2023-12-09T07:17:19.595Z,1.78
2023-12-09T07:20:22.093Z,1.89
2023-12-09T07:23:36.262Z,1.87
2023-12-09T07:26:38.749Z,1.91
2023-12-09T07:29:45.877Z,1.92
2023-12-09T07:32:48.461Z,1.88
2023-12-09T07:35:51.582Z,1.89
2023-12-09T07:38:56.998Z,1.84
2023-12-09T07:42:02.892Z,1.86
2023-12-09T07:45:10.657Z,1.90
2023-12-09T07:48:13.058Z,1.89
2023-12-09T07:51:15.468Z,1.93
2023-12-09T07:54:49.701Z,1.99
2023-12-09T07:57:54.919Z,2.01
2023-12-09T08:01:11.662Z,2.10
2023-12-09T08:04:22.394Z,2.14
2023-12-09T08:07:28.639Z,2.03
2023-12-09T08:10:31.802Z,2.09
2023-12-09T08:13:35.138Z,2.15
2023-12-09T08:16:39.721Z,2.07
2023-12-09T08:19:46.081Z,2.11
2023-12-09T08:22:48.761Z,2.18
2023-12-09T08:25:51.167Z,2.14
2023-12-09T08:28:53.840Z,2.15
2023-12-09T08:31:58.494Z,2.08
2023-12-09T08:35:07.496Z,2.13
2023-12-09T08:38:12.534Z,2.17
2023-12-09T08:41:14.794Z,2.25
2023-12-09T08:44:19.183Z,2.27
2023-12-09T08:47:25.332Z,2.31
2023-12-09T08:50:28.918Z,2.31
2023-12-09T08:53:31.942Z,2.29
2023-12-09T08:56:34.198Z,2.37
2023-12-09T08:59:36.576Z,2.37
2023-12-09T09:02:40.394Z,2.41
2023-12-09T09:05:43.763Z,2.47
2023-12-09T09:08:45.970Z,2.51
2023-12-09T09:11:47.969Z,2.60
2023-12-09T09:14:50.431Z,2.58
2023-12-09T09:17:57.704Z,2.70
2023-12-09T09:21:00.455Z,2.61
2023-12-09T09:24:05.088Z,2.78
2023-12-09T09:27:07.747Z,2.87
2023-12-09T09:30:10.687Z,2.82
2023-12-09T09:33:15.909Z,2.87
2023-12-09T09:36:19.179Z,2.92
2023-12-09T09:39:22.372Z,2.92
2023-12-09T09:42:30.847Z,3.03
2023-12-09T09:45:36.706Z,3.10
2023-12-09T09:48:44.940Z,3.12
2023-12-09T09:51:54.317Z,3.23
2023-12-09T09:54:58.449Z,3.22
2023-12-09T09:58:01.271Z,3.27
2023-12-09T10:01:07.007Z,3.27
2023-12-09T10:04:11.004Z,3.36
2023-12-09T10:07:14.110Z,3.31
2023-12-09T10:10:18.241Z,3.39
2023-12-09T10:13:20.979Z,3.38
2023-12-09T10:16:23.704Z,3.54
2023-12-09T10:19:27.921Z,3.61
2023-12-09T10:22:30.556Z,3.66
2023-12-09T10:25:33.090Z,3.77
2023-12-09T10:28:35.418Z,3.73
2023-12-09T10:31:37.857Z,3.79
2023-12-09T10:34:42.492Z,3.90
2023-12-09T10:37:45.100Z,3.96
2023-12-09T10:40:47.396Z,4.02
2023-12-09T10:43:49.704Z,4.00
2023-12-09T10:46:55.747Z,4.23
2023-12-09T10:50:00.564Z,4.24
2023-12-09T10:53:03.397Z,4.20
2023-12-09T10:56:09.650Z,4.20
2023-12-09T10:59:15.270Z,4.11
2023-12-09T11:02:39.581Z,4.10
2023-12-09T11:05:49.019Z,4.14
2023-12-09T11:08:52.469Z,4.20
2023-12-09T11:11:56.152Z,4.14
2023-12-09T11:15:06.500Z,4.20
2023-12-09T11:18:10.440Z,4.21
2023-12-09T11:21:15.686Z,4.27
2023-12-09T11:24:20.822Z,4.43
2023-12-09T11:27:26.558Z,4.32
2023-12-09T11:30:35.466Z,4.38
2023-12-09T11:33:38.478Z,4.50
2023-12-09T11:36:43.444Z,4.47
2023-12-09T11:39:46.506Z,4.44
2023-12-09T11:42:53.685Z,4.44
2023-12-09T11:45:56.436Z,4.51
2023-12-09T11:48:59.724Z,4.59
2023-12-09T11:52:06.725Z,4.61
2023-12-09T11:55:11.535Z,4.62
2023-12-09T11:58:13.976Z,4.71
2023-12-09T12:01:19.360Z,4.67
2023-12-09T12:04:21.623Z,4.74
2023-12-09T12:07:27.402Z,4.58
2023-12-09T12:10:35.928Z,4.66
2023-12-09T12:13:38.957Z,4.62
2023-12-09T12:16:46.781Z,4.69
2023-12-09T12:19:50.216Z,4.58
2023-12-09T12:22:55.345Z,4.74
2023-12-09T12:26:00.034Z,4.70
2023-12-09T12:29:05.378Z,4.76
2023-12-09T12:32:08.475Z,4.76
2023-12-09T12:35:12.319Z,4.82
2023-12-09T12:38:16.169Z,4.88
2023-12-09T12:41:19.453Z,4.81
2023-12-09T12:44:22.392Z,4.92
2023-12-09T12:47:24.659Z,4.89
2023-12-09T12:50:29.696Z,4.84
2023-12-09T12:53:33.511Z,4.93
2023-12-09T12:56:36.839Z,4.87
2023-12-09T12:59:39.874Z,4.95
2023-12-09T13:02:42.322Z,4.92
2023-12-09T13:05:47.077Z,4.91
2023-12-09T13:08:52.261Z,4.92
2023-12-09T13:11:54.486Z,4.98
2023-12-09T13:14:57.574Z,5.04
2023-12-09T13:18:00.012Z,4.88
2023-12-09T13:21:03.206Z,4.86
2023-12-09T13:24:07.453Z,4.93
2023-12-09T13:27:10.101Z,4.95
2023-12-09T13:30:14.623Z,4.80
2023-12-09T13:33:17.147Z,4.76
2023-12-09T13:36:19.637Z,4.78
2023-12-09T13:39:27.740Z,4.85
2023-12-09T13:42:30.308Z,4.76
2023-12-09T13:45:37.484Z,4.77
2023-12-09T13:48:41.036Z,4.66
2023-12-09T13:51:43.510Z,4.75
2023-12-09T13:54:48.533Z,4.77
2023-12-09T13:57:51.337Z,4.73
2023-12-09T14:00:58.220Z,4.75
2023-12-09T14:04:00.669Z,4.78
2023-12-09T14:07:03.170Z,4.71
2023-12-09T14:10:10.135Z,4.83
2023-12-09T14:13:15.420Z,4.90
2023-12-09T14:16:26.677Z,4.97
2023-12-09T14:19:30.160Z,4.97
2023-12-09T14:22:32.631Z,4.94
2023-12-09T14:25:36.606Z,4.95
2023-12-09T14:28:38.867Z,4.95
2023-12-09T14:31:41.413Z,4.99
2023-12-09T14:34:43.782Z,5.03
2023-12-09T14:37:51.972Z,5.07
2023-12-09T14:40:58.233Z,5.16
2023-12-09T14:44:06.102Z,5.14
2023-12-09T14:47:11.744Z,5.15
2023-12-09T14:50:14.347Z,5.28
2023-12-09T14:53:18.787Z,5.16
2023-12-09T14:56:27.659Z,5.29
2023-12-09T14:59:30.840Z,5.32
2023-12-09T15:02:41.333Z,5.21
2023-12-09T15:05:44.009Z,5.35
2023-12-09T15:08:46.547Z,5.33
2023-12-09T15:11:53.518Z,5.26
2023-12-09T15:15:02.069Z,5.22
2023-12-09T15:18:05.808Z,5.19
2023-12-09T15:21:08.833Z,5.18
2023-12-09T15:24:13.518Z,5.04
2023-12-09T15:27:17.348Z,5.06
2023-12-09T15:30:20.049Z,5.19
2023-12-09T15:33:22.663Z,5.18
2023-12-09T15:36:25.154Z,5.05
2023-12-09T15:39:40.983Z,5.11
2023-12-09T15:42:45.002Z,5.04
2023-12-09T15:45:47.615Z,4.95
2023-12-09T15:48:50.907Z,4.94
2023-12-09T15:51:55.124Z,4.86
2023-12-09T15:54:57.935Z,4.80
2023-12-09T15:58:01.665Z,4.77
2023-12-09T16:01:04.442Z,4.80
2023-12-09T16:04:06.900Z,4.75
2023-12-09T16:07:09.227Z,4.74
2023-12-09T16:10:13.303Z,4.77
2023-12-09T16:13:17.527Z,4.69
2023-12-09T16:16:21.406Z,4.69
2023-12-09T16:19:25.170Z,4.63
2023-12-09T16:22:28.045Z,4.62
2023-12-09T16:25:30.642Z,4.59
2023-12-09T16:28:34.518Z,4.56
2023-12-09T16:31:37.040Z,4.59
2023-12-09T16:34:39.755Z,4.54
2023-12-09T16:37:42.203Z,4.53
2023-12-09T16:40:46.176Z,4.51
2023-12-09T16:43:50.051Z,4.56
2023-12-09T16:46:53.069Z,4.50
2023-12-09T16:49:55.697Z,4.56
2023-12-09T16:53:02.157Z,4.54
2023-12-09T16:56:05.055Z,4.43
2023-12-09T16:59:11.948Z,4.46
2023-12-09T17:02:14.287Z,4.53
2023-12-09T17:05:17.429Z,4.45
2023-12-09T17:08:20.357Z,4.42
2023-12-09T17:11:23.954Z,4.41
2023-12-09T17:14:28.695Z,4.43
2023-12-09T17:17:31.471Z,4.43
2023-12-09T17:20:36.655Z,4.45
2023-12-09T17:23:41.784Z,4.42
2023-12-09T17:26:44.585Z,4.46
2023-12-09T17:29:48.515Z,4.49
2023-12-09T17:32:51.292Z,4.46
2023-12-09T17:35:53.983Z,4.43
2023-12-09T17:39:00.258Z,4.49
2023-12-09T17:42:02.491Z,4.47
2023-12-09T17:45:08.072Z,4.54
2023-12-09T17:48:11.831Z,4.52
2023-12-09T17:51:17.024Z,4.55
2023-12-09T17:54:21.340Z,4.51
2023-12-09T17:57:23.600Z,4.50
2023-12-09T18:00:27.649Z,4.59
2023-12-09T18:03:34.244Z,4.62
2023-12-09T18:06:36.654Z,4.58
2023-12-09T18:09:39.307Z,4.54
2023-12-09T18:12:41.900Z,4.52
2023-12-09T18:15:46.186Z,4.50
2023-12-09T18:18:49.591Z,4.60
2023-12-09T18:21:53.016Z,4.52
2023-12-09T18:24:55.649Z,4.56
2023-12-09T18:27:58.533Z,4.54
2023-12-09T18:31:05.765Z,4.51
2023-12-09T18:34:08.920Z,4.38
2023-12-09T18:37:12.076Z,4.44
2023-12-09T18:40:15.817Z,4.49
2023-12-09T18:43:20.668Z,4.48
2023-12-09T18:46:25.972Z,4.48
2023-12-09T18:49:28.914Z,4.43
2023-12-09T18:52:32.544Z,4.35
2023-12-09T18:55:35.042Z,4.42
2023-12-09T18:58:37.401Z,4.35
2023-12-09T19:01:42.883Z,4.30
2023-12-09T19:04:46.781Z,4.32
2023-12-09T19:07:52.141Z,4.29
2023-12-09T19:10:59.052Z,4.19
2023-12-09T19:14:02.944Z,4.10
2023-12-09T19:17:13.740Z,4.20
2023-12-09T19:20:16.964Z,4.13
2023-12-09T19:23:22.873Z,4.14
2023-12-09T19:26:25.667Z,4.03
2023-12-09T19:29:28.412Z,4.02
2023-12-09T19:32:34.079Z,4.04
2023-12-09T19:35:36.887Z,4.11
2023-12-09T19:38:39.024Z,4.06
2023-12-09T19:41:41.320Z,4.08
2023-12-09T19:44:44.523Z,4.07
2023-12-09T19:47:48.481Z,4.11
2023-12-09T19:50:53.825Z,4.10
2023-12-09T19:53:56.344Z,4.11
2023-12-09T19:57:00.612Z,4.12
2023-12-09T20:00:03.263Z,4.23
2023-12-09T20:03:07.680Z,4.14
2023-12-09T20:06:10.007Z,4.24
2023-12-09T20:09:12.270Z,4.35
2023-12-09T20:12:14.434Z,4.27
2023-12-09T20:15:17.314Z,4.28
2023-12-09T20:18:20.905Z,4.26
2023-12-09T20:21:23.104Z,4.18
2023-12-09T20:24:27.263Z,4.27
2023-12-09T20:27:29.492Z,4.25
2023-12-09T20:30:31.533Z,4.25
2023-12-09T20:33:36.607Z,4.16
2023-12-09T20:36:39.035Z,4.16
2023-12-09T20:39:43.883Z,4.10
2023-12-09T20:42:49.100Z,4.15
2023-12-09T20:45:51.472Z,4.15
2023-12-09T20:48:55.033Z,4.09
2023-12-09T20:51:58.048Z,4.15
2023-12-09T20:55:00.416Z,4.13
2023-12-09T20:58:02.679Z,4.10
2023-12-09T21:01:11.817Z,4.09
2023-12-09T21:04:17.061Z,4.18
2023-12-09T21:07:19.320Z,4.17
2023-12-09T21:10:23.423Z,4.16
2023-12-09T21:13:30.354Z,4.07
2023-12-09T21:16:32.928Z,4.19
2023-12-09T21:19:36.850Z,4.20
2023-12-09T21:22:39.874Z,4.21
2023-12-09T21:25:44.451Z,4.22
2023-12-09T21:28:46.242Z,4.25
2023-12-09T21:31:49.308Z,4.28
2023-12-09T21:34:52.974Z,4.21
2023-12-09T21:37:54.980Z,4.33
2023-12-09T21:40:57.310Z,4.33
2023-12-09T21:43:59.598Z,4.35
2023-12-09T21:47:01.665Z,4.43
2023-12-09T21:50:05.714Z,4.47
2023-12-09T21:53:08.962Z,4.46
2023-12-09T21:56:20.698Z,4.40
2023-12-09T21:59:22.879Z,4.40
2023-12-09T22:02:25.322Z,4.44
2023-12-09T22:05:34.696Z,4.40
2023-12-09T22:08:36.996Z,4.27
2023-12-09T22:11:38.760Z,4.41
2023-12-09T22:14:40.752Z,4.32
2023-12-09T22:17:43.111Z,4.31
2023-12-09T22:20:46.764Z,4.29
2023-12-09T22:23:49.238Z,4.35
2023-12-09T22:26:51.388Z,4.41
2023-12-09T22:29:53.957Z,4.46
2023-12-09T22:32:56.586Z,4.50
2023-12-09T22:36:00.201Z,4.47
2023-12-09T22:39:02.276Z,4.54
2023-12-09T22:42:05.158Z,4.57
2023-12-09T22:45:08.370Z,4.60
2023-12-09T22:48:11.608Z,4.62
2023-12-09T22:51:19.195Z,4.65
2023-12-09T22:54:22.245Z,4.88
2023-12-09T22:57:24.212Z,5.05
2023-12-09T23:00:33.624Z,5.06
2023-12-09T23:03:36.208Z,5.30
2023-12-09T23:06:39.578Z,5.44
2023-12-09T23:09:42.088Z,5.64
2023-12-09T23:12:44.546Z,5.84
2023-12-09T23:15:46.696Z,5.89
2023-12-09T23:18:49.135Z,6.13
2023-12-09T23:21:54.754Z,6.26
2023-12-09T23:24:59.535Z,6.38
2023-12-09T23:28:02.393Z,6.34
2023-12-09T23:31:05.516Z,6.36
2023-12-09T23:34:09.012Z,6.51
2023-12-09T23:37:15.850Z,6.54
2023-12-09T23:40:21.009Z,6.42
2023-12-09T23:43:23.478Z,6.50
2023-12-09T23:46:26.224Z,6.57
2023-12-09T23:49:28.980Z,6.52
2023-12-09T23:52:35.655Z,6.62
2023-12-09T23:55:38.822Z,6.62
2023-12-09T23:58:43.224Z,6.62
